sensor_id;sensor_type;location;lat;lon;timestamp;temperature;humidity
8338;DHT22;4206;48.634;9.516;2023-07-16T16:42:17;28.70;94.40
8338;DHT22;4206;48.634;9.516;2023-07-16T16:44:44;28.90;93.10
8338;DHT22;4206;48.634;9.516;2023-07-16T16:47:11;28.80;93.10
8338;DHT22;4206;48.634;9.516;2023-07-16T16:49:39;28.70;93.20
8338;DHT22;4206;48.634;9.516;2023-07-16T16:52:07;28.40;92.80
8338;DHT22;4206;48.634;9.516;2023-07-16T16:54:34;28.10;93.20
8338;DHT22;4206;48.634;9.516;2023-07-16T16:57:03;27.90;92.80
8338;DHT22;4206;48.634;9.516;2023-07-16T16:59:30;27.80;94.20
8338;DHT22;4206;48.634;9.516;2023-07-16T17:02:01;27.40;94.70
8338;DHT22;4206;48.634;9.516;2023-07-16T17:04:29;27.20;94.90
8338;DHT22;4206;48.634;9.516;2023-07-16T17:06:56;27.10;95.10
8338;DHT22;4206;48.634;9.516;2023-07-16T17:09:25;26.90;94.70
8338;DHT22;4206;48.634;9.516;2023-07-16T17:11:55;26.70;94.90
8338;DHT22;4206;48.634;9.516;2023-07-16T17:14:22;26.80;94.90
8338;DHT22;4206;48.634;9.516;2023-07-16T17:16:49;26.80;95.20
8338;DHT22;4206;48.634;9.516;2023-07-16T17:19:16;26.70;95.50
8338;DHT22;4206;48.634;9.516;2023-07-16T17:21:43;26.50;95.70
8338;DHT22;4206;48.634;9.516;2023-07-16T17:24:10;26.50;95.60
8338;DHT22;4206;48.634;9.516;2023-07-16T17:26:39;26.40;96.40
8338;DHT22;4206;48.634;9.516;2023-07-16T17:29:07;26.40;96.10
8338;DHT22;4206;48.634;9.516;2023-07-16T17:31:35;26.30;96.30
8338;DHT22;4206;48.634;9.516;2023-07-16T17:34:02;26.30;96.30
8338;DHT22;4206;48.634;9.516;2023-07-16T17:36:30;26.30;95.60
8338;DHT22;4206;48.634;9.516;2023-07-16T17:38:57;26.30;95.40
8338;DHT22;4206;48.634;9.516;2023-07-16T17:41:24;26.10;95.70
8338;DHT22;4206;48.634;9.516;2023-07-16T17:43:51;26.00;96.00
8338;DHT22;4206;48.634;9.516;2023-07-16T17:46:18;26.00;95.60
8338;DHT22;4206;48.634;9.516;2023-07-16T17:48:48;26.00;95.90
8338;DHT22;4206;48.634;9.516;2023-07-16T17:51:15;25.90;96.50
8338;DHT22;4206;48.634;9.516;2023-07-16T17:53:43;25.90;96.70
8338;DHT22;4206;48.634;9.516;2023-07-16T17:56:10;25.80;96.60
8338;DHT22;4206;48.634;9.516;2023-07-16T17:58:37;25.60;96.30
8338;DHT22;4206;48.634;9.516;2023-07-16T18:01:06;25.60;96.00
8338;DHT22;4206;48.634;9.516;2023-07-16T18:03:33;25.40;96.50
8338;DHT22;4206;48.634;9.516;2023-07-16T18:06:00;25.40;97.10
8338;DHT22;4206;48.634;9.516;2023-07-16T18:08:28;25.40;97.20
8338;DHT22;4206;48.634;9.516;2023-07-16T18:10:55;25.30;98.10
8338;DHT22;4206;48.634;9.516;2023-07-16T18:13:22;25.10;98.10
8338;DHT22;4206;48.634;9.516;2023-07-16T18:15:49;25.20;98.00
8338;DHT22;4206;48.634;9.516;2023-07-16T18:18:16;25.10;98.40
8338;DHT22;4206;48.634;9.516;2023-07-16T18:20:44;25.00;98.90
8338;DHT22;4206;48.634;9.516;2023-07-16T18:23:15;24.90;98.70
8338;DHT22;4206;48.634;9.516;2023-07-16T18:25:42;24.90;99.00
8338;DHT22;4206;48.634;9.516;2023-07-16T18:28:09;24.80;98.70
8338;DHT22;4206;48.634;9.516;2023-07-16T18:30:41;24.80;99.60
8338;DHT22;4206;48.634;9.516;2023-07-16T18:33:08;24.80;99.70
8338;DHT22;4206;48.634;9.516;2023-07-16T18:35:35;24.80;99.60
8338;DHT22;4206;48.634;9.516;2023-07-16T18:38:02;24.60;99.30
8338;DHT22;4206;48.634;9.516;2023-07-16T18:40:31;24.60;99.20
8338;DHT22;4206;48.634;9.516;2023-07-16T18:42:58;24.50;99.80
8338;DHT22;4206;48.634;9.516;2023-07-16T18:45:26;24.60;99.70
8338;DHT22;4206;48.634;9.516;2023-07-16T18:47:53;24.30;99.50
8338;DHT22;4206;48.634;9.516;2023-07-16T18:50:20;24.30;99.90
8338;DHT22;4206;48.634;9.516;2023-07-16T18:52:48;24.10;99.80
8338;DHT22;4206;48.634;9.516;2023-07-16T18:55:17;24.10;99.90
8338;DHT22;4206;48.634;9.516;2023-07-16T18:57:46;24.20;99.90
8338;DHT22;4206;48.634;9.516;2023-07-16T19:00:13;24.00;99.90
8338;DHT22;4206;48.634;9.516;2023-07-16T19:02:40;23.90;99.90
8338;DHT22;4206;48.634;9.516;2023-07-16T19:05:08;23.80;99.90
8338;DHT22;4206;48.634;9.516;2023-07-16T19:07:37;23.70;99.90
8338;DHT22;4206;48.634;9.516;2023-07-16T19:10:05;23.60;99.90
8338;DHT22;4206;48.634;9.516;2023-07-16T19:12:32;23.50;99.90
8338;DHT22;4206;48.634;9.516;2023-07-16T19:14:59;23.40;99.90
8338;DHT22;4206;48.634;9.516;2023-07-16T19:17:30;23.20;99.90
8338;DHT22;4206;48.634;9.516;2023-07-16T19:19:57;23.10;99.90
8338;DHT22;4206;48.634;9.516;2023-07-16T19:22:25;23.00;99.90
8338;DHT22;4206;48.634;9.516;2023-07-16T19:24:53;22.80;99.90
8338;DHT22;4206;48.634;9.516;2023-07-16T19:27:20;22.70;99.90
8338;DHT22;4206;48.634;9.516;2023-07-16T19:29:49;22.60;99.90
8338;DHT22;4206;48.634;9.516;2023-07-16T19:32:19;22.70;99.90
8338;DHT22;4206;48.634;9.516;2023-07-16T19:34:47;22.40;99.90
8338;DHT22;4206;48.634;9.516;2023-07-16T19:37:14;22.30;99.90
8338;DHT22;4206;48.634;9.516;2023-07-16T19:39:41;22.30;99.90
8338;DHT22;4206;48.634;9.516;2023-07-16T19:42:09;22.20;99.90
8338;DHT22;4206;48.634;9.516;2023-07-16T19:44:36;22.20;99.90
8338;DHT22;4206;48.634;9.516;2023-07-16T19:47:03;22.10;99.90
8338;DHT22;4206;48.634;9.516;2023-07-16T19:49:32;22.10;99.90
8338;DHT22;4206;48.634;9.516;2023-07-16T19:51:59;22.00;99.90
8338;DHT22;4206;48.634;9.516;2023-07-16T19:54:26;22.10;99.90
8338;DHT22;4206;48.634;9.516;2023-07-16T19:56:53;22.00;99.90
8338;DHT22;4206;48.634;9.516;2023-07-16T19:59:21;22.00;99.90
8338;DHT22;4206;48.634;9.516;2023-07-16T20:01:51;22.00;99.90
8338;DHT22;4206;48.634;9.516;2023-07-16T20:04:18;21.90;99.90
8338;DHT22;4206;48.634;9.516;2023-07-16T20:06:45;21.90;99.90
8338;DHT22;4206;48.634;9.516;2023-07-16T20:09:32;21.90;99.90
8338;DHT22;4206;48.634;9.516;2023-07-16T20:12:01;22.00;99.90
8338;DHT22;4206;48.634;9.516;2023-07-16T20:14:29;21.90;99.90
8338;DHT22;4206;48.634;9.516;2023-07-16T20:16:56;21.80;99.90
8338;DHT22;4206;48.634;9.516;2023-07-16T20:19:23;21.80;99.90
8338;DHT22;4206;48.634;9.516;2023-07-16T20:21:53;21.70;99.90
8338;DHT22;4206;48.634;9.516;2023-07-16T20:24:20;21.70;99.90
8338;DHT22;4206;48.634;9.516;2023-07-16T20:26:47;21.60;99.90
8338;DHT22;4206;48.634;9.516;2023-07-16T20:29:14;21.60;99.90
8338;DHT22;4206;48.634;9.516;2023-07-16T20:31:41;21.60;99.90
8338;DHT22;4206;48.634;9.516;2023-07-16T20:34:09;21.50;99.90
8338;DHT22;4206;48.634;9.516;2023-07-16T20:36:35;21.40;99.90
8338;DHT22;4206;48.634;9.516;2023-07-16T20:39:02;21.40;99.90
8338;DHT22;4206;48.634;9.516;2023-07-16T20:41:29;21.30;99.90
8338;DHT22;4206;48.634;9.516;2023-07-16T20:43:56;21.20;99.90
8338;DHT22;4206;48.634;9.516;2023-07-16T20:46:23;21.20;99.90
8338;DHT22;4206;48.634;9.516;2023-07-16T20:48:51;21.20;99.90
8338;DHT22;4206;48.634;9.516;2023-07-16T20:51:18;21.20;99.90
8338;DHT22;4206;48.634;9.516;2023-07-16T20:53:45;21.20;99.90
8338;DHT22;4206;48.634;9.516;2023-07-16T20:56:14;21.30;99.90
8338;DHT22;4206;48.634;9.516;2023-07-16T20:58:41;21.20;99.90
8338;DHT22;4206;48.634;9.516;2023-07-16T21:01:08;21.20;99.90
8338;DHT22;4206;48.634;9.516;2023-07-16T21:03:35;21.20;99.90
8338;DHT22;4206;48.634;9.516;2023-07-16T21:06:03;21.10;99.90
8338;DHT22;4206;48.634;9.516;2023-07-16T21:08:30;21.00;99.90
8338;DHT22;4206;48.634;9.516;2023-07-16T21:10:58;21.00;99.90
8338;DHT22;4206;48.634;9.516;2023-07-16T21:13:25;21.00;99.90
8338;DHT22;4206;48.634;9.516;2023-07-16T21:15:52;20.90;99.90
8338;DHT22;4206;48.634;9.516;2023-07-16T21:18:19;20.90;99.90
8338;DHT22;4206;48.634;9.516;2023-07-16T21:20:46;21.00;99.90
8338;DHT22;4206;48.634;9.516;2023-07-16T21:23:14;20.80;99.90
8338;DHT22;4206;48.634;9.516;2023-07-16T21:25:41;20.90;99.90
8338;DHT22;4206;48.634;9.516;2023-07-16T21:28:08;20.90;99.90
8338;DHT22;4206;48.634;9.516;2023-07-16T21:30:36;20.80;99.90
8338;DHT22;4206;48.634;9.516;2023-07-16T21:33:04;20.80;99.90
8338;DHT22;4206;48.634;9.516;2023-07-16T21:35:31;20.80;99.90
8338;DHT22;4206;48.634;9.516;2023-07-16T21:37:59;20.80;99.90
8338;DHT22;4206;48.634;9.516;2023-07-16T21:40:26;20.80;99.90
8338;DHT22;4206;48.634;9.516;2023-07-16T21:42:53;20.80;99.90
8338;DHT22;4206;48.634;9.516;2023-07-16T21:45:21;20.90;99.90
8338;DHT22;4206;48.634;9.516;2023-07-16T21:47:49;20.80;99.90
8338;DHT22;4206;48.634;9.516;2023-07-16T21:50:17;20.80;99.90
8338;DHT22;4206;48.634;9.516;2023-07-16T21:52:47;20.90;99.90
8338;DHT22;4206;48.634;9.516;2023-07-16T21:55:14;20.80;99.90
8338;DHT22;4206;48.634;9.516;2023-07-16T21:57:41;20.70;99.90
8338;DHT22;4206;48.634;9.516;2023-07-16T22:00:08;20.70;99.90
8338;DHT22;4206;48.634;9.516;2023-07-16T22:02:40;20.70;99.90
8338;DHT22;4206;48.634;9.516;2023-07-16T22:05:09;20.70;99.90
8338;DHT22;4206;48.634;9.516;2023-07-16T22:07:38;20.70;99.90
8338;DHT22;4206;48.634;9.516;2023-07-16T22:10:06;20.70;99.90
8338;DHT22;4206;48.634;9.516;2023-07-16T22:12:33;20.70;99.90
8338;DHT22;4206;48.634;9.516;2023-07-16T22:15:00;20.70;99.90
8338;DHT22;4206;48.634;9.516;2023-07-16T22:17:27;20.60;99.90
8338;DHT22;4206;48.634;9.516;2023-07-16T22:19:54;20.60;99.90
8338;DHT22;4206;48.634;9.516;2023-07-16T22:22:21;20.60;99.90
8338;DHT22;4206;48.634;9.516;2023-07-16T22:24:48;20.60;99.90
8338;DHT22;4206;48.634;9.516;2023-07-16T22:27:15;20.50;99.90
8338;DHT22;4206;48.634;9.516;2023-07-16T22:29:42;20.50;99.90
8338;DHT22;4206;48.634;9.516;2023-07-16T22:32:09;20.40;99.90
8338;DHT22;4206;48.634;9.516;2023-07-16T22:34:36;20.40;99.90
8338;DHT22;4206;48.634;9.516;2023-07-16T22:37:03;20.30;99.90
8338;DHT22;4206;48.634;9.516;2023-07-16T22:39:30;20.20;99.90
8338;DHT22;4206;48.634;9.516;2023-07-16T22:41:57;20.10;99.90
8338;DHT22;4206;48.634;9.516;2023-07-16T22:44:23;20.10;99.90
8338;DHT22;4206;48.634;9.516;2023-07-16T22:46:50;20.10;99.90
8338;DHT22;4206;48.634;9.516;2023-07-16T22:49:17;20.00;99.90
8338;DHT22;4206;48.634;9.516;2023-07-16T22:51:44;19.90;99.90
8338;DHT22;4206;48.634;9.516;2023-07-16T22:54:11;19.90;99.90
8338;DHT22;4206;48.634;9.516;2023-07-16T22:56:38;19.90;99.90
8338;DHT22;4206;48.634;9.516;2023-07-16T22:59:05;19.70;99.90
8338;DHT22;4206;48.634;9.516;2023-07-16T23:01:32;19.70;99.90
8338;DHT22;4206;48.634;9.516;2023-07-16T23:03:59;19.60;99.90
8338;DHT22;4206;48.634;9.516;2023-07-16T23:06:26;19.60;99.90
8338;DHT22;4206;48.634;9.516;2023-07-16T23:08:53;19.50;99.90
8338;DHT22;4206;48.634;9.516;2023-07-16T23:11:20;19.50;99.90
8338;DHT22;4206;48.634;9.516;2023-07-16T23:13:47;19.40;99.90
8338;DHT22;4206;48.634;9.516;2023-07-16T23:16:14;19.30;99.90
8338;DHT22;4206;48.634;9.516;2023-07-16T23:18:41;19.30;99.90
8338;DHT22;4206;48.634;9.516;2023-07-16T23:21:08;19.30;99.90
8338;DHT22;4206;48.634;9.516;2023-07-16T23:23:35;19.20;99.90
8338;DHT22;4206;48.634;9.516;2023-07-16T23:26:03;19.20;99.90
8338;DHT22;4206;48.634;9.516;2023-07-16T23:28:31;19.20;99.90
8338;DHT22;4206;48.634;9.516;2023-07-16T23:30:59;19.20;99.90
8338;DHT22;4206;48.634;9.516;2023-07-16T23:33:26;19.10;99.90
8338;DHT22;4206;48.634;9.516;2023-07-16T23:35:53;19.10;99.90
8338;DHT22;4206;48.634;9.516;2023-07-16T23:38:21;19.10;99.90
8338;DHT22;4206;48.634;9.516;2023-07-16T23:40:48;19.00;99.90
8338;DHT22;4206;48.634;9.516;2023-07-16T23:43:15;19.00;99.90
8338;DHT22;4206;48.634;9.516;2023-07-16T23:45:43;18.90;99.90
8338;DHT22;4206;48.634;9.516;2023-07-16T23:48:10;18.90;99.90
8338;DHT22;4206;48.634;9.516;2023-07-16T23:50:38;18.90;99.90
8338;DHT22;4206;48.634;9.516;2023-07-16T23:53:05;18.80;99.90
8338;DHT22;4206;48.634;9.516;2023-07-16T23:55:32;18.90;99.90
8338;DHT22;4206;48.634;9.516;2023-07-16T23:57:59;18.80;99.90
